Time;durP1;ratioP1;P1;durP2;ratioP2;P2;SDS_P1;SDS_P2;PMS_P1;PMS_P2;Temp;Humidity;BMP_temperature;BMP_pressure;BME280_temperature;BME280_humidity;BME280_pressure;Samples;Min_cycle;Max_cycle;Signal;HPM_P1;HPM_P2
2022/05/13 00:01:27;;;;;;;7.33;1.70;;;21.10;99.90;;;;;;5035960;28;20451;-73
2022/05/13 00:03:55;;;;;;;0.70;0.20;;;21.10;99.90;;;;;;5035375;28;20812;-74
2022/05/13 00:06:23;;;;;;;0.70;0.20;;;21.00;99.90;;;;;;5034036;28;20538;-73
2022/05/13 00:08:52;;;;;;;0.70;0.10;;;21.00;99.90;;;;;;5039981;28;20532;-73
2022/05/13 00:11:20;;;;;;;0.70;0.10;;;21.00;99.90;;;;;;5044764;28;20448;-73
2022/05/13 00:13:48;;;;;;;0.70;0.20;;;20.90;99.90;;;;;;5051852;28;20481;-73
2022/05/13 00:16:16;;;;;;;0.70;0.20;;;20.90;99.90;;;;;;5051451;28;20443;-71
2022/05/13 00:18:45;;;;;;;0.70;0.10;;;20.80;99.90;;;;;;5052360;28;20484;-71
2022/05/13 00:21:13;;;;;;;0.70;0.10;;;20.80;99.90;;;;;;5052605;28;20442;-74
2022/05/13 00:23:40;;;;;;;0.70;0.10;;;20.70;99.90;;;;;;5052573;28;20484;-72
2022/05/13 00:26:09;;;;;;;0.70;0.10;;;20.70;99.90;;;;;;5047786;28;20469;-72
2022/05/13 00:28:37;;;;;;;0.70;0.13;;;20.60;99.90;;;;;;5033623;28;20445;-72
2022/05/13 00:31:05;;;;;;;0.70;0.20;;;20.60;99.90;;;;;;5036670;28;20449;-72
2022/05/13 00:33:33;;;;;;;0.70;0.20;;;20.50;99.90;;;;;;5033380;28;20616;-71
2022/05/13 00:36:01;;;;;;;0.70;0.10;;;20.50;99.90;;;;;;5031627;28;20890;-73
2022/05/13 00:38:29;;;;;;;0.70;0.10;;;20.40;99.90;;;;;;5031248;28;20486;-73
2022/05/13 00:40:57;;;;;;;0.70;0.10;;;20.50;99.90;;;;;;5031999;28;20446;-73
2022/05/13 00:43:47;;;;;;;0.70;0.10;;;20.50;99.90;;;;;;5031838;28;20470;-73
2022/05/13 00:46:15;;;;;;;0.70;0.10;;;20.50;99.90;;;;;;5031049;28;20445;-72
2022/05/13 00:48:44;;;;;;;0.70;0.17;;;20.50;99.90;;;;;;5031356;28;20449;-72
2022/05/13 00:51:15;;;;;;;0.70;0.20;;;20.60;99.90;;;;;;5031491;28;20453;-72
2022/05/13 00:53:44;;;;;;;0.70;0.10;;;20.60;99.90;;;;;;5031834;28;20485;-71
2022/05/13 00:56:12;;;;;;;0.70;0.10;;;20.60;99.90;;;;;;5031604;28;20453;-73
2022/05/13 00:58:44;;;;;;;0.70;0.20;;;20.60;99.90;;;;;;5031601;28;21017;-72
2022/05/13 01:01:12;;;;;;;0.70;0.13;;;20.60;99.90;;;;;;5031446;28;20473;-74
2022/05/13 01:03:40;;;;;;;0.70;0.20;;;20.60;99.90;;;;;;5031171;28;20975;-73
2022/05/13 01:06:13;;;;;;;0.70;0.20;;;20.60;99.90;;;;;;5030783;28;20445;-73
2022/05/13 01:08:41;;;;;;;0.70;0.20;;;20.60;99.90;;;;;;5031504;28;21166;-72
2022/05/13 01:11:14;;;;;;;0.67;0.20;;;20.60;99.90;;;;;;5031238;28;20920;-72
2022/05/13 01:13:49;;;;;;;0.70;0.20;;;20.40;99.90;;;;;;5031132;28;20552;-74
2022/05/13 01:16:17;;;;;;;0.70;0.10;;;20.40;99.90;;;;;;5030998;28;20449;-71
2022/05/13 01:18:44;;;;;;;0.70;0.10;;;20.40;99.90;;;;;;5031098;28;20489;-72
2022/05/13 01:21:19;;;;;;;0.70;0.10;;;20.30;99.90;;;;;;5031150;28;20540;-72
2022/05/13 01:23:50;;;;;;;0.70;0.10;;;20.20;99.90;;;;;;5030280;28;20484;-72
2022/05/13 01:26:25;;;;;;;0.70;0.13;;;20.30;99.90;;;;;;5030697;28;20459;-73
2022/05/13 01:28:55;;;;;;;0.70;0.10;;;20.30;99.90;;;;;;5031130;28;20449;-72
2022/05/13 01:31:25;;;;;;;0.60;0.10;;;20.30;99.90;;;;;;5031285;28;20476;-72
2022/05/13 01:33:54;;;;;;;0.70;0.10;;;20.20;99.90;;;;;;5030808;28;20499;-73
2022/05/13 01:36:22;;;;;;;0.70;0.20;;;20.10;99.90;;;;;;5030408;28;20453;-73
2022/05/13 01:38:52;;;;;;;0.70;0.10;;;20.10;99.90;;;;;;5030969;28;20819;-73
2022/05/13 01:41:20;;;;;;;0.70;0.10;;;20.00;99.90;;;;;;5030992;28;20445;-72
2022/05/13 01:43:49;;;;;;;0.70;0.10;;;19.80;99.90;;;;;;5030716;28;20462;-73
2022/05/13 01:46:18;;;;;;;0.70;0.10;;;19.80;99.90;;;;;;5029847;28;20545;-73
2022/05/13 01:48:47;;;;;;;0.60;0.10;;;19.60;99.90;;;;;;5030004;28;20437;-72
2022/05/13 01:51:14;;;;;;;0.60;0.20;;;19.60;99.90;;;;;;5030624;28;20440;-72
2022/05/13 01:53:43;;;;;;;0.60;0.20;;;19.40;99.90;;;;;;5030354;28;20477;-72
2022/05/13 01:56:12;;;;;;;0.70;0.10;;;19.40;99.90;;;;;;5029759;28;20458;-72
2022/05/13 01:58:40;;;;;;;0.60;0.10;;;19.40;99.90;;;;;;5029976;28;20488;-75
2022/05/13 02:01:09;;;;;;;0.60;0.20;;;19.30;99.90;;;;;;5028915;28;20448;-73
2022/05/13 02:03:46;;;;;;;0.70;0.10;;;19.00;99.90;;;;;;5029450;28;20493;-73
2022/05/13 02:06:18;;;;;;;0.67;0.10;;;19.00;99.90;;;;;;5027773;28;20567;-72
2022/05/13 02:08:46;;;;;;;0.60;0.20;;;19.00;99.90;;;;;;5029550;28;20436;-72
2022/05/13 02:11:17;;;;;;;0.70;0.20;;;18.90;99.90;;;;;;5029394;28;20583;-71
2022/05/13 02:13:45;;;;;;;0.70;0.20;;;18.70;99.90;;;;;;5025624;28;20786;-74
2022/05/13 02:16:14;;;;;;;1.00;0.50;;;18.70;99.90;;;;;;5027441;28;20983;-72
2022/05/13 02:18:42;;;;;;;0.70;0.20;;;18.40;99.90;;;;;;5029316;28;20479;-74
2022/05/13 02:21:10;;;;;;;0.70;0.20;;;18.30;99.90;;;;;;5028973;28;20448;-72
2022/05/13 02:23:39;;;;;;;0.60;0.10;;;18.40;99.90;;;;;;5030467;28;20474;-73
2022/05/13 02:26:09;;;;;;;0.60;0.10;;;18.40;99.90;;;;;;5029839;28;20456;-73
2022/05/13 02:28:38;;;;;;;0.70;0.20;;;18.40;99.90;;;;;;5029989;28;20443;-73
2022/05/13 02:31:07;;;;;;;0.60;0.10;;;18.50;99.90;;;;;;5031086;28;20443;-72
2022/05/13 02:33:35;;;;;;;0.60;0.13;;;18.50;99.90;;;;;;5030619;28;20891;-72
2022/05/13 02:36:04;;;;;;;0.60;0.20;;;18.50;99.90;;;;;;5031619;28;20803;-72
2022/05/13 02:38:33;;;;;;;0.60;0.20;;;18.60;99.90;;;;;;5038596;28;20483;-74
2022/05/13 02:41:14;;;;;;;0.60;0.20;;;18.60;99.90;;;;;;5039968;28;20841;-72
2022/05/13 02:43:46;;;;;;;0.60;0.10;;;18.60;99.90;;;;;;5033766;28;20582;-72
2022/05/13 02:46:15;;;;;;;0.60;0.10;;;18.70;99.90;;;;;;5032681;28;20453;-73
2022/05/13 02:48:43;;;;;;;0.60;0.20;;;18.60;99.90;;;;;;5033500;28;20439;-72
2022/05/13 02:51:11;;;;;;;0.60;0.20;;;18.60;99.90;;;;;;5034457;28;20460;-73
2022/05/13 02:53:40;;;;;;;0.70;0.20;;;;;;;;;;5048278;23;20472;-72
2022/05/13 02:56:08;;;;;;;0.60;0.10;;;18.60;99.90;;;;;;5050108;28;20950;-72
2022/05/13 02:58:37;;;;;;;0.60;0.20;;;;;;;;;;5053818;28;20507;-71
2022/05/13 03:01:08;;;;;;;0.60;0.10;;;18.50;99.90;;;;;;5052911;28;20442;-73
2022/05/13 03:03:39;;;;;;;0.60;0.13;;;18.40;99.90;;;;;;5054121;28;20462;-71
2022/05/13 03:06:07;;;;;;;0.60;0.10;;;18.40;99.90;;;;;;5052616;28;20443;-71
2022/05/13 03:08:35;;;;;;;0.60;0.10;;;18.40;99.90;;;;;;5073541;28;20454;-72
2022/05/13 03:11:04;;;;;;;0.60;0.10;;;18.30;99.90;;;;;;5073995;28;20729;-71
2022/05/13 03:13:32;;;;;;;0.60;0.10;;;18.20;99.90;;;;;;5073916;28;20481;-71
2022/05/13 03:16:07;;;;;;;0.60;0.17;;;18.20;99.90;;;;;;5072840;28;20447;-71
2022/05/13 03:18:39;;;;;;;0.60;0.10;;;18.20;99.90;;;;;;5073351;28;20830;-72
2022/05/13 03:21:07;;;;;;;0.60;0.20;;;18.30;99.90;;;;;;5073689;28;21007;-72
2022/05/13 03:23:35;;;;;;;0.60;0.20;;;18.20;99.90;;;;;;5073713;28;20446;-72
2022/05/13 03:26:02;;;;;;;0.60;0.10;;;18.20;99.90;;;;;;5073720;28;20441;-71
2022/05/13 03:28:30;;;;;;;0.60;0.20;;;18.20;99.90;;;;;;5073614;28;20444;-71
2022/05/13 03:30:58;;;;;;;0.60;0.10;;;18.10;99.90;;;;;;5073582;28;20814;-71
2022/05/13 03:33:28;;;;;;;0.60;0.10;;;;;;;;;;5073386;28;20851;-71
2022/05/13 03:35:56;;;;;;;0.60;0.20;;;18.20;99.90;;;;;;5073043;28;20941;-72
2022/05/13 03:38:24;;;;;;;0.60;0.20;;;18.20;99.90;;;;;;5072774;28;20555;-72
2022/05/13 03:40:52;;;;;;;0.60;0.20;;;18.30;99.90;;;;;;5072807;28;20478;-72
2022/05/13 03:43:20;;;;;;;0.60;0.10;;;18.30;99.90;;;;;;5072565;28;20546;-72
2022/05/13 03:45:48;;;;;;;0.60;0.10;;;18.30;99.90;;;;;;5071573;28;20469;-71
2022/05/13 03:48:16;;;;;;;0.70;0.30;;;18.20;99.90;;;;;;5072380;28;20446;-71
2022/05/13 03:50:46;;;;;;;0.60;0.10;;;18.20;99.90;;;;;;5072826;28;20842;-73
2022/05/13 03:53:15;;;;;;;0.60;0.10;;;18.20;99.90;;;;;;5072757;28;20963;-72
2022/05/13 03:55:43;;;;;;;0.60;0.20;;;18.30;99.90;;;;;;5072577;28;20469;-72
2022/05/13 03:58:11;;;;;;;0.60;0.13;;;18.40;99.90;;;;;;5072242;28;20791;-72
2022/05/13 04:00:39;;;;;;;0.60;0.10;;;18.40;99.90;;;;;;5073008;28;20490;-71
2022/05/13 04:03:08;;;;;;;0.60;0.10;;;18.50;99.90;;;;;;5073173;28;20448;-72
2022/05/13 04:11:08;;;;;;;0.60;0.20;;;18.80;99.90;;;;;;5072664;28;20494;-72
2022/05/13 04:16:21;;;;;;;0.60;0.10;;;19.00;99.90;;;;;;5071685;28;20448;-72
2022/05/13 04:18:51;;;;;;;0.60;0.10;;;18.90;99.90;;;;;;5072080;28;20536;-73
2022/05/13 04:21:23;;;;;;;0.60;0.10;;;19.00;99.90;;;;;;5071773;28;20454;-73
2022/05/13 04:23:54;;;;;;;0.70;0.10;;;19.10;99.90;;;;;;5070437;28;20477;-73
2022/05/13 04:26:24;;;;;;;0.60;0.10;;;19.00;99.90;;;;;;5077938;28;20440;-71
2022/05/13 04:28:53;;;;;;;0.60;0.10;;;19.00;99.90;;;;;;5073011;28;20452;-72
2022/05/13 04:31:23;;;;;;;0.60;0.20;;;19.00;99.90;;;;;;5071807;28;20766;-72
2022/05/13 04:33:52;;;;;;;0.60;0.10;;;18.80;99.90;;;;;;5072177;28;20534;-71
2022/05/13 04:36:21;;;;;;;0.60;0.10;;;18.80;99.90;;;;;;5067446;28;20968;-73
2022/05/13 04:38:49;;;;;;;0.60;0.10;;;18.60;99.90;;;;;;5074082;28;20454;-71
2022/05/13 04:44:05;;;;;;;0.60;0.20;;;18.60;99.90;;;;;;5058222;28;20476;-71
2022/05/13 04:46:34;;;;;;;0.60;0.10;;;18.60;99.90;;;;;;5079192;28;20434;-72
2022/05/13 04:49:02;;;;;;;0.60;0.10;;;18.50;99.90;;;;;;5065498;28;20458;-72
2022/05/13 04:51:30;;;;;;;0.60;0.10;;;18.50;99.90;;;;;;5072243;28;20445;-71
2022/05/13 04:53:59;;;;;;;0.60;0.13;;;18.50;99.90;;;;;;5083595;28;20955;-71
2022/05/13 04:56:29;;;;;;;0.60;0.10;;;18.60;99.90;;;;;;5091675;28;20442;-72
2022/05/13 04:58:57;;;;;;;0.60;0.20;;;18.80;99.90;;;;;;5091770;28;20446;-71
2022/05/13 05:01:26;;;;;;;0.60;0.10;;;18.80;99.90;;;;;;5092454;28;20487;-71
2022/05/13 05:03:54;;;;;;;0.60;0.13;;;18.90;99.90;;;;;;5092189;28;21010;-77
2022/05/13 05:06:23;;;;;;;0.60;0.20;;;18.90;99.90;;;;;;5093346;28;20437;-77
2022/05/13 05:08:53;;;;;;;0.60;0.10;;;18.90;99.90;;;;;;5094217;28;20476;-79
2022/05/13 05:11:21;;;;;;;0.60;0.10;;;18.80;99.90;;;;;;5096682;28;20444;-78
2022/05/13 05:13:52;;;;;;;0.60;0.20;;;18.70;99.90;;;;;;5096038;28;20576;-78
2022/05/13 05:16:22;;;;;;;0.60;0.20;;;18.70;99.90;;;;;;5095593;28;20450;-78
2022/05/13 05:18:50;;;;;;;0.60;0.20;;;18.50;99.90;;;;;;5092736;28;20445;-77
2022/05/13 05:21:19;;;;;;;0.60;0.20;;;18.40;99.90;;;;;;5095094;28;20472;-78
2022/05/13 05:23:48;;;;;;;0.60;0.20;;;18.20;99.90;;;;;;5094048;28;20453;-77
2022/05/13 05:26:17;;;;;;;0.60;0.10;;;18.30;99.90;;;;;;5089717;28;20530;-78
2022/05/13 05:28:46;;;;;;;0.60;0.20;;;18.10;99.90;;;;;;5075988;28;20440;-78
2022/05/13 05:31:15;;;;;;;0.60;0.20;;;17.80;99.90;;;;;;5072193;28;20873;-73
2022/05/13 05:33:44;;;;;;;0.60;0.10;;;17.30;99.90;;;;;;5071120;28;20488;-74
2022/05/13 05:36:12;;;;;;;0.60;0.10;;;17.30;99.90;;;;;;5070725;28;20529;-73
2022/05/13 05:38:40;;;;;;;0.60;0.20;;;;;;;;;;5072049;28;20469;-74
2022/05/13 05:41:08;;;;;;;0.60;0.10;;;17.50;99.90;;;;;;5071703;28;20480;-73
2022/05/13 05:43:36;;;;;;;0.60;0.17;;;17.60;99.90;;;;;;5071362;28;20533;-72
2022/05/13 05:46:04;;;;;;;0.60;0.10;;;17.60;99.90;;;;;;5071314;28;20446;-73
2022/05/13 05:48:34;;;;;;;0.60;0.10;;;17.70;99.90;;;;;;5071286;28;20442;-74
2022/05/13 05:51:02;;;;;;;0.60;0.20;;;17.70;99.90;;;;;;5079267;28;20458;-72
2022/05/13 05:59:04;;;;;;;0.60;0.20;;;17.80;99.90;;;;;;5085299;28;20451;-73
2022/05/13 06:01:32;;;;;;;0.60;0.10;;;18.10;99.90;;;;;;5070193;28;20572;-74
2022/05/13 06:04:01;;;;;;;0.60;0.10;;;18.20;99.90;;;;;;5088262;28;20534;-74
2022/05/13 06:06:29;;;;;;;0.60;0.10;;;18.20;99.90;;;;;;5090834;28;20444;-73
2022/05/13 06:08:58;;;;;;;0.60;0.10;;;18.20;99.90;;;;;;5093664;28;20445;-73
2022/05/13 06:11:26;;;;;;;0.60;0.10;;;18.20;99.90;;;;;;5094505;28;20440;-73
2022/05/13 06:13:56;;;;;;;0.60;0.10;;;18.30;99.90;;;;;;5093462;28;20460;-73
2022/05/13 06:16:25;;;;;;;0.60;0.10;;;18.30;99.90;;;;;;5092928;28;20448;-70
2022/05/13 06:18:54;;;;;;;0.60;0.10;;;18.30;99.90;;;;;;5095132;28;20522;-71
2022/05/13 06:21:23;;;;;;;0.60;0.30;;;18.40;99.90;;;;;;5094338;28;20978;-72
2022/05/13 06:23:51;;;;;;;0.60;0.10;;;18.50;99.90;;;;;;5094997;28;20464;-70
2022/05/13 06:26:19;;;;;;;0.70;0.20;;;18.50;99.90;;;;;;5093847;28;21062;-69
2022/05/13 06:28:47;;;;;;;0.60;0.10;;;18.60;99.90;;;;;;5083034;28;20465;-73
2022/05/13 06:31:16;;;;;;;0.60;0.20;;;18.60;99.90;;;;;;5077787;28;20810;-74
2022/05/13 06:33:44;;;;;;;0.60;0.20;;;18.60;99.90;;;;;;5092656;28;20933;-74
2022/05/13 06:36:13;;;;;;;0.60;0.20;;;18.60;99.90;;;;;;5092485;28;20445;-74
2022/05/13 06:38:43;;;;;;;0.60;0.20;;;18.60;99.90;;;;;;5092746;28;20487;-72
2022/05/13 06:41:11;;;;;;;0.60;0.10;;;18.30;99.90;;;;;;5095775;28;20487;-73
2022/05/13 06:43:39;;;;;;;0.60;0.20;;;18.10;99.90;;;;;;5095630;28;20441;-73
2022/05/13 06:46:06;;;;;;;0.60;0.10;;;18.10;99.90;;;;;;5095871;28;20450;-72
2022/05/13 06:48:35;;;;;;;0.60;0.20;;;16.90;99.90;;;;;;5094663;28;20440;-74
2022/05/13 06:51:03;;;;;;;0.60;0.20;;;18.20;99.90;;;;;;5094921;28;20471;-74
2022/05/13 06:53:31;;;;;;;0.60;0.20;;;18.10;99.90;;;;;;5088969;28;20817;-72
2022/05/13 06:56:00;;;;;;;0.60;0.10;;;;;;;;;;5074259;28;20449;-72
2022/05/13 06:58:28;;;;;;;0.60;0.10;;;18.20;99.90;;;;;;5081674;28;20451;-75
2022/05/13 07:00:56;;;;;;;0.60;0.20;;;18.20;99.90;;;;;;5069914;28;20476;-74
2022/05/13 07:03:24;;;;;;;0.60;0.10;;;18.30;99.90;;;;;;5078741;28;20503;-72
2022/05/13 07:05:52;;;;;;;0.70;0.30;;;18.70;99.90;;;;;;5073877;28;20541;-72
2022/05/13 07:08:20;;;;;;;0.60;0.10;;;18.20;99.90;;;;;;5073670;28;20449;-73
2022/05/13 07:10:48;;;;;;;0.60;0.17;;;18.00;99.90;;;;;;5074854;28;20437;-73
2022/05/13 07:13:18;;;;;;;1.80;0.97;;;17.70;99.90;;;;;;5080400;28;20449;-72
2022/05/13 07:15:46;;;;;;;1.10;0.67;;;17.70;99.90;;;;;;5082891;28;20467;-72
2022/05/13 07:18:14;;;;;;;2.80;0.40;;;17.60;99.90;;;;;;5073913;28;20444;-71
2022/05/13 07:20:42;;;;;;;0.70;0.30;;;17.40;99.90;;;;;;5073464;28;20450;-73
2022/05/13 07:23:10;;;;;;;0.70;0.20;;;17.40;99.90;;;;;;5073307;28;20543;-73
2022/05/13 07:25:38;;;;;;;0.60;0.20;;;17.50;99.90;;;;;;5073538;28;20469;-75
2022/05/13 07:28:06;;;;;;;0.60;0.10;;;17.60;99.90;;;;;;5078271;28;20805;-74
2022/05/13 07:30:36;;;;;;;0.67;0.37;;;17.80;99.90;;;;;;5084743;28;20466;-74
2022/05/13 07:33:04;;;;;;;0.60;0.20;;;17.90;99.90;;;;;;5085241;28;20463;-73
2022/05/13 07:35:32;;;;;;;1.73;0.50;;;18.00;99.90;;;;;;5073070;28;21000;-74
2022/05/13 07:38:00;;;;;;;0.70;0.20;;;18.00;99.90;;;;;;5065438;28;20442;-75
2022/05/13 07:43:14;;;;;;;0.60;0.20;;;18.20;99.90;;;;;;5092514;28;20440;-73
2022/05/13 07:45:43;;;;;;;0.60;0.10;;;18.20;99.90;;;;;;5090556;28;20465;-74
2022/05/13 07:48:11;;;;;;;1.10;0.63;;;18.20;99.90;;;;;;5092889;28;20489;-72
2022/05/13 07:50:39;;;;;;;0.60;0.20;;;18.10;99.90;;;;;;5094763;28;20454;-74
2022/05/13 07:53:07;;;;;;;0.90;0.40;;;18.20;99.90;;;;;;5094805;28;20455;-73
2022/05/13 07:55:35;;;;;;;0.70;0.30;;;18.20;99.90;;;;;;5093456;28;20991;-72
2022/05/13 07:58:03;;;;;;;1.10;0.93;;;18.10;99.90;;;;;;5093915;28;20840;-73
2022/05/13 08:00:33;;;;;;;0.60;0.10;;;18.10;99.90;;;;;;5093173;28;20964;-74
2022/05/13 08:03:05;;;;;;;0.60;0.20;;;18.20;99.90;;;;;;5093609;28;20488;-73
2022/05/13 08:05:37;;;;;;;0.70;0.40;;;18.10;99.90;;;;;;5093448;28;20464;-74
2022/05/13 08:08:07;;;;;;;0.70;0.40;;;18.00;99.90;;;;;;5093300;28;20449;-73
2022/05/13 08:10:37;;;;;;;0.83;0.40;;;18.10;99.90;;;;;;5094089;28;20537;-74
2022/05/13 08:13:05;;;;;;;1.40;0.20;;;18.40;99.90;;;;;;5084697;28;20489;-76
2022/05/13 08:15:34;;;;;;;1.17;0.80;;;;;;;;;;5101627;28;20707;-80
2022/05/13 08:18:04;;;;;;;0.93;0.33;;;18.30;99.90;;;;;;5099841;28;20438;-80
2022/05/13 08:20:32;;;;;;;0.80;0.30;;;18.30;99.90;;;;;;5094450;28;20965;-78
2022/05/13 08:23:00;;;;;;;0.60;0.10;;;18.40;99.90;;;;;;5094316;28;20499;-79
2022/05/13 08:25:28;;;;;;;0.70;0.20;;;18.50;99.90;;;;;;5093740;28;20464;-77
2022/05/13 08:27:55;;;;;;;1.07;0.97;;;18.50;99.90;;;;;;5092188;28;20429;-77
2022/05/13 08:30:24;;;;;;;0.60;0.27;;;18.70;99.90;;;;;;5093035;28;20460;-76
2022/05/13 08:32:52;;;;;;;0.60;0.20;;;18.70;99.90;;;;;;5092624;28;20444;-76
2022/05/13 08:35:24;;;;;;;0.60;0.23;;;18.90;99.90;;;;;;5092702;28;20472;-76
2022/05/13 08:37:53;;;;;;;0.60;0.13;;;18.90;99.90;;;;;;5093201;28;20436;-76
2022/05/13 08:40:32;;;;;;;0.60;0.10;;;18.80;99.90;;;;;;5096039;28;20448;-79
2022/05/13 08:43:04;;;;;;;0.60;0.20;;;18.80;99.90;;;;;;5097786;28;20572;-79
2022/05/13 08:45:32;;;;;;;0.60;0.20;;;18.80;99.90;;;;;;5094964;28;20510;-80
2022/05/13 08:48:02;;;;;;;2.60;2.17;;;18.80;99.90;;;;;;5093300;28;20445;-77
2022/05/13 08:50:37;;;;;;;0.60;0.20;;;18.80;99.90;;;;;;5084238;28;20461;-80
2022/05/13 08:53:12;;;;;;;7.97;7.57;;;19.00;99.90;;;;;;5084798;28;20441;-78
2022/05/13 08:55:43;;;;;;;0.60;0.20;;;19.10;99.90;;;;;;5080647;23;20768;-76
2022/05/13 08:58:16;;;;;;;2.63;0.30;;;19.10;99.90;;;;;;5050901;28;20541;-77
2022/05/13 09:00:46;;;;;;;0.70;0.20;;;19.20;99.90;;;;;;5050585;28;20462;-77
2022/05/13 09:03:25;;;;;;;0.70;0.20;;;19.20;99.90;;;;;;5051185;28;20478;-76
2022/05/13 09:06:00;;;;;;;0.60;0.10;;;19.20;99.90;;;;;;5037305;28;20478;-76
2022/05/13 09:08:33;;;;;;;0.60;0.10;;;19.10;99.90;;;;;;5031065;28;20450;-76
2022/05/13 09:11:14;;;;;;;0.60;0.10;;;19.20;99.90;;;;;;5031230;28;20561;-75
2022/05/13 09:13:50;;;;;;;0.60;0.10;;;19.10;99.90;;;;;;5029073;28;20490;-76
2022/05/13 09:16:26;;;;;;;0.60;0.10;;;19.10;99.90;;;;;;5029545;28;20904;-75
2022/05/13 09:18:59;;;;;;;0.70;0.30;;;19.30;99.90;;;;;;5029829;28;20435;-75
2022/05/13 09:21:28;;;;;;;0.70;0.10;;;19.40;99.90;;;;;;5031671;28;20452;-74
2022/05/13 09:23:56;;;;;;;0.70;0.37;;;19.40;99.90;;;;;;5030653;28;20917;-74
2022/05/13 09:26:26;;;;;;;0.70;0.20;;;19.50;99.90;;;;;;5036634;28;20920;-74
2022/05/13 09:29:08;;;;;;;0.70;0.30;;;19.60;99.90;;;;;;5050168;28;20442;-75
2022/05/13 09:31:39;;;;;;;0.67;0.20;;;19.60;99.90;;;;;;5032344;28;20914;-75
2022/05/13 09:34:28;;;;;;;0.60;0.10;;;19.70;99.90;;;;;;5034359;28;20459;-75
2022/05/13 09:37:06;;;;;;;0.60;0.10;;;19.70;99.90;;;;;;5046990;28;20476;-76
2022/05/13 09:39:37;;;;;;;0.70;0.10;;;19.80;99.90;;;;;;5029349;28;20443;-77
2022/05/13 09:42:24;;;;;;;0.70;0.20;;;19.90;99.90;;;;;;5041092;28;20571;-75
2022/05/13 09:45:11;;;;;;;0.60;0.10;;;20.00;99.90;;;;;;5020957;28;20827;-75
2022/05/13 09:47:40;;;;;;;0.70;0.10;;;20.00;99.90;;;;;;5020248;28;20473;-75
2022/05/13 09:50:21;;;;;;;0.70;0.10;;;20.00;99.90;;;;;;5032576;28;20451;-75
2022/05/13 09:52:52;;;;;;;0.70;0.20;;;20.10;99.90;;;;;;5032238;28;20433;-76
2022/05/13 09:55:26;;;;;;;0.70;0.10;;;20.20;99.90;;;;;;5038525;28;20472;-74
2022/05/13 09:57:54;;;;;;;0.70;0.20;;;20.20;99.90;;;;;;5040326;28;20538;-77
2022/05/13 10:00:25;;;;;;;0.70;0.20;;;20.30;99.90;;;;;;5036862;28;20499;-74
2022/05/13 10:03:08;;;;;;;0.70;0.20;;;20.30;99.90;;;;;;5033130;28;20901;-76
2022/05/13 10:05:37;;;;;;;0.70;0.10;;;20.40;99.90;;;;;;5035693;28;20579;-76
2022/05/13 10:08:12;;;;;;;0.70;0.20;;;20.40;99.90;;;;;;5027868;28;20978;-74
2022/05/13 10:16:19;;;;;;;0.70;0.10;;;20.50;99.90;;;;;;5050271;28;20469;-73
2022/05/13 10:18:52;;;;;;;0.80;0.20;;;20.60;99.90;;;;;;5050498;28;20880;-73
2022/05/13 10:21:26;;;;;;;0.70;0.20;;;20.50;99.90;;;;;;5050130;28;20455;-71
2022/05/13 10:23:59;;;;;;;0.70;0.10;;;20.40;99.90;;;;;;5050161;28;20845;-71
2022/05/13 10:26:32;;;;;;;0.70;0.10;;;20.50;99.90;;;;;;5049874;28;20464;-72
2022/05/13 10:29:07;;;;;;;0.70;0.20;;;20.40;99.90;;;;;;5050011;28;20451;-72
2022/05/13 10:31:39;;;;;;;0.80;0.33;;;20.50;99.90;;;;;;5049970;28;20448;-72
2022/05/13 10:34:15;;;;;;;0.70;0.20;;;20.50;99.90;;;;;;5049261;28;20505;-72
2022/05/13 10:36:48;;;;;;;0.70;0.20;;;20.60;99.90;;;;;;5049811;28;20945;-72
2022/05/13 10:39:25;;;;;;;0.70;0.20;;;20.60;99.90;;;;;;5050462;28;20819;-73
2022/05/13 10:41:58;;;;;;;0.70;0.20;;;20.70;99.90;;;;;;5050489;28;20479;-71
2022/05/13 10:44:37;;;;;;;1.83;1.73;;;20.50;99.90;;;;;;5048796;28;20580;-73
2022/05/13 10:47:09;;;;;;;0.80;0.30;;;20.50;99.90;;;;;;5049845;28;20929;-74
2022/05/13 10:49:40;;;;;;;0.80;0.40;;;20.30;99.90;;;;;;5049571;28;20447;-73
2022/05/13 10:52:18;;;;;;;0.70;0.10;;;20.20;99.90;;;;;;5050157;28;20563;-72
2022/05/13 10:54:53;;;;;;;0.70;0.20;;;20.30;99.90;;;;;;5050127;28;20869;-74
2022/05/13 10:57:32;;;;;;;0.67;0.10;;;20.30;99.90;;;;;;5053068;28;20449;-73
2022/05/13 11:00:11;;;;;;;0.70;0.10;;;20.40;99.90;;;;;;5054028;28;20454;-73
2022/05/13 11:03:22;;;;;;;0.70;0.27;;;20.50;99.90;;;;;;5053325;28;20447;-72
2022/05/13 11:06:02;;;;;;;0.70;0.20;;;20.60;99.90;;;;;;4971619;28;20477;-71
2022/05/13 11:08:40;;;;;;;0.70;0.10;;;20.70;99.90;;;;;;5048982;28;20448;-73
2022/05/13 11:11:31;;;;;;;0.70;0.20;;;20.80;99.90;;;;;;5053559;28;20440;-72
2022/05/13 11:14:09;;;;;;;0.70;0.10;;;20.90;99.90;;;;;;5048810;28;20474;-72
2022/05/13 11:16:49;;;;;;;0.70;0.20;;;20.90;99.90;;;;;;5052832;28;20467;-72
2022/05/13 11:19:27;;;;;;;0.70;0.10;;;21.00;99.90;;;;;;5053056;28;20440;-71
2022/05/13 11:22:02;;;;;;;0.80;0.40;;;21.00;99.90;;;;;;5053346;28;20446;-71
2022/05/13 11:28:00;;;;;;;0.63;0.10;;;20.80;99.90;;;;;;5021379;28;20964;-73
2022/05/13 11:30:42;;;;;;;1.30;0.60;;;20.50;99.90;;;;;;5033452;28;20495;-72
2022/05/13 11:33:21;;;;;;;1.23;1.13;;;20.50;99.90;;;;;;5033099;28;20473;-73
2022/05/13 11:35:57;;;;;;;0.77;0.33;;;20.60;99.90;;;;;;5033191;28;20487;-72
2022/05/13 11:38:45;;;;;;;0.67;0.10;;;20.70;99.90;;;;;;5031928;28;20453;-73
2022/05/13 11:41:15;;;;;;;0.70;0.10;;;20.80;99.90;;;;;;5033326;28;20540;-73
2022/05/13 11:44:07;;;;;;;0.70;0.40;;;21.10;99.90;;;;;;5032170;28;20485;-73
2022/05/13 11:46:48;;;;;;;0.70;0.10;;;21.20;99.90;;;;;;5032292;28;20469;-72
2022/05/13 11:49:23;;;;;;;0.70;0.10;;;21.20;99.90;;;;;;5035342;28;20512;-76
2022/05/13 11:51:51;;;;;;;0.90;0.30;;;21.40;99.90;;;;;;5051184;28;20547;-75
2022/05/13 11:54:41;;;;;;;0.80;0.50;;;21.00;99.90;;;;;;5042734;28;20482;-76
2022/05/13 11:57:24;;;;;;;0.70;0.20;;;21.00;99.90;;;;;;5037368;28;20505;-77
2022/05/13 11:59:55;;;;;;;0.70;0.17;;;20.90;99.90;;;;;;5038010;28;20964;-77
2022/05/13 12:02:34;;;;;;;0.70;0.10;;;21.00;99.90;;;;;;5034894;28;20554;-76
2022/05/13 12:05:24;;;;;;;1.37;0.40;;;21.50;99.90;;;;;;5037532;28;20527;-76
2022/05/13 12:07:55;;;;;;;0.70;0.20;;;21.50;99.90;;;;;;5035093;28;20456;-76
2022/05/13 12:10:34;;;;;;;0.70;0.20;;;21.70;99.90;;;;;;5035393;28;20450;-76
2022/05/13 12:13:21;;;;;;;0.70;0.10;;;21.80;99.90;;;;;;5034535;28;20449;-76
2022/05/13 12:16:10;;;;;;;0.70;0.20;;;21.80;99.90;;;;;;5035846;28;20457;-76
2022/05/13 12:18:46;;;;;;;0.70;0.10;;;21.80;99.90;;;;;;5037819;28;20446;-75
2022/05/13 12:21:27;;;;;;;0.70;0.20;;;21.80;99.90;;;;;;5038392;28;20468;-76
2022/05/13 12:23:57;;;;;;;0.70;0.13;;;21.80;99.90;;;;;;5032895;28;20568;-76
2022/05/13 12:27:10;;;;;;;0.70;0.20;;;21.70;99.90;;;;;;5038874;28;20504;-76
2022/05/13 12:29:56;;;;;;;0.70;0.10;;;20.60;99.90;;;;;;5038116;28;20548;-76
2022/05/13 12:32:36;;;;;;;0.70;0.20;;;21.80;99.90;;;;;;5054641;28;20449;-77
2022/05/13 12:38:06;;;;;;;0.70;0.20;;;21.90;99.90;;;;;;5056070;28;20575;-76
2022/05/13 12:40:41;;;;;;;0.70;0.10;;;22.10;99.90;;;;;;5055215;28;20564;-76
2022/05/13 12:43:18;;;;;;;0.70;0.20;;;22.10;99.90;;;;;;5054997;28;20449;-76
2022/05/13 12:46:17;;;;;;;0.70;0.20;;;22.10;99.90;;;;;;5058587;28;20470;-76
2022/05/13 12:49:03;;;;;;;0.70;0.20;;;22.20;99.90;;;;;;5052347;28;20552;-77
2022/05/13 12:51:46;;;;;;;0.70;0.20;;;22.30;99.90;;;;;;5054798;28;20445;-77
2022/05/13 12:54:19;;;;;;;0.70;0.20;;;22.40;99.90;;;;;;5054823;28;20969;-79
2022/05/13 12:56:51;;;;;;;0.73;0.27;;;22.40;99.90;;;;;;5056039;28;20470;-77
2022/05/13 12:59:24;;;;;;;0.70;0.10;;;22.40;99.90;;;;;;5044792;28;21010;-76
2022/05/13 13:01:59;;;;;;;0.70;0.30;;;22.40;99.90;;;;;;5041289;28;20449;-75
2022/05/13 13:04:32;;;;;;;0.70;0.10;;;22.50;99.90;;;;;;5053365;28;20513;-77
2022/05/13 13:07:08;;;;;;;0.70;0.20;;;22.50;99.90;;;;;;5038053;28;20449;-77
2022/05/13 13:09:41;;;;;;;1.03;0.20;;;22.60;99.90;;;;;;5036352;28;20442;-76
2022/05/13 13:12:17;;;;;;;0.70;0.20;;;22.60;99.90;;;;;;5034264;28;20812;-77
2022/05/13 13:14:52;;;;;;;0.70;0.10;;;22.60;99.90;;;;;;5035046;28;20470;-79
2022/05/13 13:17:32;;;;;;;3.17;2.87;;;22.60;99.90;;;;;;5035553;28;20457;-76
2022/05/13 13:20:04;;;;;;;0.70;0.20;;;22.60;99.90;;;;;;5038770;28;20775;-75
2022/05/13 13:22:36;;;;;;;2.10;1.50;;;22.40;99.90;;;;;;5036887;28;20482;-76
2022/05/13 13:25:13;;;;;;;0.80;0.37;;;21.70;99.90;;;;;;5031682;28;20513;-76
2022/05/13 13:27:48;;;;;;;0.70;0.20;;;21.70;99.90;;;;;;5050046;28;20915;-77
2022/05/13 13:30:19;;;;;;;0.70;0.10;;;21.70;99.90;;;;;;5052587;28;20442;-77
2022/05/13 13:32:50;;;;;;;0.70;0.10;;;21.90;99.90;;;;;;5053277;28;20460;-76
2022/05/13 13:35:29;;;;;;;0.87;0.20;;;22.20;99.90;;;;;;5053983;28;20484;-76
2022/05/13 13:37:58;;;;;;;0.70;0.10;;;22.20;99.90;;;;;;5046679;28;20445;-77
2022/05/13 13:40:31;;;;;;;0.70;0.20;;;22.10;99.90;;;;;;5045017;28;20935;-77
2022/05/13 13:43:14;;;;;;;0.70;0.20;;;22.30;99.90;;;;;;5011829;28;20455;-76